sensor_id;sensor_type;location;lat;lon;timestamp;noise_LAeq;noise_LA_min;noise_LA_max;noise_LA01;noise_LA95
1754;Laerm;58380;48.312;9.246;2023-09-19T05:07:24;43.45;34.71;62.97;;
1754;Laerm;58380;48.312;9.246;2023-09-19T05:09:51;47.36;37.83;60.75;;
1754;Laerm;58380;48.312;9.246;2023-09-19T05:12:17;49.23;39.55;70.67;;
1754;Laerm;58380;48.312;9.246;2023-09-19T05:14:45;43.21;35.22;57.01;;
1754;Laerm;58380;48.312;9.246;2023-09-19T05:17:10;44.73;37.88;55.64;;
1754;Laerm;58380;48.312;9.246;2023-09-19T05:19:35;46.23;36.92;70.89;;
1754;Laerm;58380;48.312;9.246;2023-09-19T05:22:02;43.40;37.74;51.03;;
1754;Laerm;58380;48.312;9.246;2023-09-19T05:24:29;46.74;37.47;56.59;;
1754;Laerm;58380;48.312;9.246;2023-09-19T05:26:56;45.91;40.04;61.39;;
1754;Laerm;58380;48.312;9.246;2023-09-19T05:29:22;44.76;35.73;57.15;;
1754;Laerm;58380;48.312;9.246;2023-09-19T05:31:47;46.87;37.30;54.26;;
1754;Laerm;58380;48.312;9.246;2023-09-19T05:34:15;46.73;37.77;55.65;;
1754;Laerm;58380;48.312;9.246;2023-09-19T05:36:40;45.67;36.54;61.23;;
1754;Laerm;58380;48.312;9.246;2023-09-19T05:39:06;47.44;39.25;53.99;;
1754;Laerm;58380;48.312;9.246;2023-09-19T05:41:34;48.72;40.04;62.54;;
1754;Laerm;58380;48.312;9.246;2023-09-19T05:44:04;50.01;39.96;63.49;;
1754;Laerm;58380;48.312;9.246;2023-09-19T05:46:29;49.34;38.00;62.31;;
1754;Laerm;58380;48.312;9.246;2023-09-19T05:48:55;48.69;38.99;62.50;;
1754;Laerm;58380;48.312;9.246;2023-09-19T05:51:24;49.50;39.74;63.30;;
1754;Laerm;58380;48.312;9.246;2023-09-19T05:53:50;49.44;38.76;62.73;;
1754;Laerm;58380;48.312;9.246;2023-09-19T05:56:16;44.80;39.31;55.85;;
1754;Laerm;58380;48.312;9.246;2023-09-19T05:58:44;48.06;40.64;56.97;;
1754;Laerm;58380;48.312;9.246;2023-09-19T06:01:10;45.94;37.02;57.01;;
1754;Laerm;58380;48.312;9.246;2023-09-19T06:03:35;57.13;35.87;84.95;;
1754;Laerm;58380;48.312;9.246;2023-09-19T06:06:03;43.34;34.37;50.37;;
1754;Laerm;58380;48.312;9.246;2023-09-19T06:08:32;45.89;35.93;53.14;;
1754;Laerm;58380;48.312;9.246;2023-09-19T06:10:58;47.34;42.77;61.27;;
1754;Laerm;58380;48.312;9.246;2023-09-19T06:13:24;47.74;41.38;56.34;;
1754;Laerm;58380;48.312;9.246;2023-09-19T06:15:52;48.26;41.79;60.56;;
1754;Laerm;58380;48.312;9.246;2023-09-19T06:18:17;46.13;36.85;58.19;;
1754;Laerm;58380;48.312;9.246;2023-09-19T06:20:48;44.11;36.20;59.82;;
1754;Laerm;58380;48.312;9.246;2023-09-19T06:23:16;46.19;39.12;63.08;;
1754;Laerm;58380;48.312;9.246;2023-09-19T06:25:43;46.54;38.88;55.70;;
1754;Laerm;58380;48.312;9.246;2023-09-19T06:28:09;46.59;37.57;65.25;;
1754;Laerm;58380;48.312;9.246;2023-09-19T06:30:38;46.88;40.36;63.62;;
1754;Laerm;58380;48.312;9.246;2023-09-19T06:33:07;46.37;35.70;58.30;;
1754;Laerm;58380;48.312;9.246;2023-09-19T06:35:33;50.32;44.72;60.74;;
1754;Laerm;58380;48.312;9.246;2023-09-19T06:38:03;50.05;44.36;60.75;;
1754;Laerm;58380;48.312;9.246;2023-09-19T06:40:29;48.85;42.87;64.13;;
1754;Laerm;58380;48.312;9.246;2023-09-19T06:42:56;48.77;40.49;56.80;;
1754;Laerm;58380;48.312;9.246;2023-09-19T06:45:21;49.11;42.59;57.11;;
1754;Laerm;58380;48.312;9.246;2023-09-19T06:47:50;46.35;37.73;58.02;;
1754;Laerm;58380;48.312;9.246;2023-09-19T06:50:20;44.98;36.45;61.96;;
1754;Laerm;58380;48.312;9.246;2023-09-19T06:52:49;41.71;33.69;63.09;;
1754;Laerm;58380;48.312;9.246;2023-09-19T06:55:19;45.48;38.66;59.02;;
1754;Laerm;58380;48.312;9.246;2023-09-19T06:57:48;45.10;38.45;74.84;;
1754;Laerm;58380;48.312;9.246;2023-09-19T07:00:16;47.44;37.97;70.98;;
1754;Laerm;58380;48.312;9.246;2023-09-19T07:02:58;46.18;34.89;55.15;;
1754;Laerm;58380;48.312;9.246;2023-09-19T07:05:27;44.70;35.14;56.03;;
1754;Laerm;58380;48.312;9.246;2023-09-19T07:07:53;45.10;35.14;61.14;;
1754;Laerm;58380;48.312;9.246;2023-09-19T07:10:25;45.32;35.15;60.85;;
1754;Laerm;58380;48.312;9.246;2023-09-19T07:13:04;44.64;38.32;54.25;;
1754;Laerm;58380;48.312;9.246;2023-09-19T07:15:35;44.21;34.98;51.38;;
1754;Laerm;58380;48.312;9.246;2023-09-19T07:18:17;42.92;34.00;55.01;;
1754;Laerm;58380;48.312;9.246;2023-09-19T07:20:44;45.45;35.00;54.75;;
1754;Laerm;58380;48.312;9.246;2023-09-19T07:23:20;44.75;36.73;52.85;;
1754;Laerm;58380;48.312;9.246;2023-09-19T07:25:47;44.08;32.65;60.19;;
1754;Laerm;58380;48.312;9.246;2023-09-19T07:28:14;43.95;31.07;54.51;;
1754;Laerm;58380;48.312;9.246;2023-09-19T07:30:40;44.78;37.50;60.46;;
1754;Laerm;58380;48.312;9.246;2023-09-19T07:33:07;46.90;34.87;58.35;;
1754;Laerm;58380;48.312;9.246;2023-09-19T07:35:37;44.72;33.50;57.12;;
1754;Laerm;58380;48.312;9.246;2023-09-19T07:38:05;48.14;32.98;64.89;;
1754;Laerm;58380;48.312;9.246;2023-09-19T07:40:31;45.69;35.47;65.25;;
1754;Laerm;58380;48.312;9.246;2023-09-19T07:42:56;41.15;35.13;57.18;;
1754;Laerm;58380;48.312;9.246;2023-09-19T07:45:22;50.76;35.76;63.34;;
1754;Laerm;58380;48.312;9.246;2023-09-19T07:47:50;48.36;33.19;66.66;;
1754;Laerm;58380;48.312;9.246;2023-09-19T07:50:19;46.87;36.83;69.49;;
1754;Laerm;58380;48.312;9.246;2023-09-19T07:52:49;45.96;32.80;65.95;;
1754;Laerm;58380;48.312;9.246;2023-09-19T07:55:19;59.98;38.46;75.86;;
1754;Laerm;58380;48.312;9.246;2023-09-19T07:57:50;50.63;37.06;73.18;;
1754;Laerm;58380;48.312;9.246;2023-09-19T08:00:15;43.27;32.95;63.25;;
1754;Laerm;58380;48.312;9.246;2023-09-19T08:02:42;42.76;34.14;52.80;;
1754;Laerm;58380;48.312;9.246;2023-09-19T08:05:10;42.52;34.12;56.95;;
1754;Laerm;58380;48.312;9.246;2023-09-19T08:07:42;49.50;36.13;66.10;;
1754;Laerm;58380;48.312;9.246;2023-09-19T08:10:09;47.74;35.50;64.79;;
1754;Laerm;58380;48.312;9.246;2023-09-19T08:12:39;47.18;35.90;74.17;;
1754;Laerm;58380;48.312;9.246;2023-09-19T08:15:19;53.52;36.38;81.38;;
1754;Laerm;58380;48.312;9.246;2023-09-19T08:17:46;55.85;40.68;75.72;;
1754;Laerm;58380;48.312;9.246;2023-09-19T08:20:12;53.10;38.12;68.16;;
1754;Laerm;58380;48.312;9.246;2023-09-19T08:22:52;48.83;38.24;71.25;;
1754;Laerm;58380;48.312;9.246;2023-09-19T08:25:23;50.22;38.54;67.97;;
1754;Laerm;58380;48.312;9.246;2023-09-19T08:27:51;52.02;37.73;69.85;;
1754;Laerm;58380;48.312;9.246;2023-09-19T08:30:20;50.29;36.49;68.00;;
1754;Laerm;58380;48.312;9.246;2023-09-19T08:32:57;45.68;37.29;66.85;;
1754;Laerm;58380;48.312;9.246;2023-09-19T08:35:23;51.46;38.54;70.53;;
1754;Laerm;58380;48.312;9.246;2023-09-19T08:37:49;43.33;36.29;55.51;;
1754;Laerm;58380;48.312;9.246;2023-09-19T08:40:14;44.88;35.49;62.61;;
1754;Laerm;58380;48.312;9.246;2023-09-19T08:42:55;44.95;35.74;60.43;;
1754;Laerm;58380;48.312;9.246;2023-09-19T08:45:25;45.59;34.52;61.85;;
1754;Laerm;58380;48.312;9.246;2023-09-19T08:50:39;51.52;33.21;71.45;;
1754;Laerm;58380;48.312;9.246;2023-09-19T08:53:11;51.68;36.35;72.52;;
1754;Laerm;58380;48.312;9.246;2023-09-19T08:55:43;53.81;34.58;75.84;;
1754;Laerm;58380;48.312;9.246;2023-09-19T08:58:13;51.85;35.24;75.41;;
1754;Laerm;58380;48.312;9.246;2023-09-19T09:00:39;51.57;37.39;76.00;;
1754;Laerm;58380;48.312;9.246;2023-09-19T09:03:09;43.26;37.39;55.44;;
1754;Laerm;58380;48.312;9.246;2023-09-19T09:05:36;45.89;37.40;61.44;;
1754;Laerm;58380;48.312;9.246;2023-09-19T09:08:05;65.20;39.32;79.06;;
1754;Laerm;58380;48.312;9.246;2023-09-19T09:10:31;73.36;40.55;88.89;;
1754;Laerm;58380;48.312;9.246;2023-09-19T09:12:58;61.26;36.61;84.38;;
1754;Laerm;58380;48.312;9.246;2023-09-19T09:15:24;56.88;35.08;77.74;;
1754;Laerm;58380;48.312;9.246;2023-09-19T09:17:51;60.01;37.09;78.89;;
1754;Laerm;58380;48.312;9.246;2023-09-19T09:20:18;45.92;36.39;72.48;;
1754;Laerm;58380;48.312;9.246;2023-09-19T09:22:52;53.70;36.97;78.04;;
1754;Laerm;58380;48.312;9.246;2023-09-19T09:25:19;57.64;36.90;70.62;;
1754;Laerm;58380;48.312;9.246;2023-09-19T09:28:01;54.71;36.41;76.45;;
1754;Laerm;58380;48.312;9.246;2023-09-19T09:30:35;66.62;38.38;86.78;;
1754;Laerm;58380;48.312;9.246;2023-09-19T09:33:10;65.62;37.69;87.80;;
1754;Laerm;58380;48.312;9.246;2023-09-19T09:35:50;43.86;35.88;65.28;;
1754;Laerm;58380;48.312;9.246;2023-09-19T09:38:22;57.15;37.86;82.97;;
1754;Laerm;58380;48.312;9.246;2023-09-19T09:40:54;44.05;36.58;63.57;;
1754;Laerm;58380;48.312;9.246;2023-09-19T09:43:30;43.77;34.05;62.69;;
1754;Laerm;58380;48.312;9.246;2023-09-19T09:46:16;44.80;36.01;71.91;;
1754;Laerm;58380;48.312;9.246;2023-09-19T09:49:00;39.60;34.09;55.94;;
1754;Laerm;58380;48.312;9.246;2023-09-19T09:52:03;44.42;35.85;63.11;;
1754;Laerm;58380;48.312;9.246;2023-09-19T09:55:04;48.20;36.22;61.88;;
1754;Laerm;58380;48.312;9.246;2023-09-19T09:57:34;45.91;37.67;62.30;;
1754;Laerm;58380;48.312;9.246;2023-09-19T10:00:01;48.13;37.02;64.03;;
1754;Laerm;58380;48.312;9.246;2023-09-19T10:02:39;55.28;40.64;84.37;;
1754;Laerm;58380;48.312;9.246;2023-09-19T10:05:20;53.58;39.08;83.23;;
1754;Laerm;58380;48.312;9.246;2023-09-19T10:07:50;47.07;38.73;66.63;;
1754;Laerm;58380;48.312;9.246;2023-09-19T10:10:35;46.85;36.07;74.18;;
1754;Laerm;58380;48.312;9.246;2023-09-19T10:13:29;46.72;36.79;66.44;;
1754;Laerm;58380;48.312;9.246;2023-09-19T10:15:59;47.06;37.66;77.26;;
1754;Laerm;58380;48.312;9.246;2023-09-19T10:18:36;48.73;35.58;77.66;;
1754;Laerm;58380;48.312;9.246;2023-09-19T10:21:04;54.59;35.64;81.57;;
1754;Laerm;58380;48.312;9.246;2023-09-19T10:23:33;52.91;36.83;77.78;;
1754;Laerm;58380;48.312;9.246;2023-09-19T10:26:01;53.00;36.75;79.87;;
1754;Laerm;58380;48.312;9.246;2023-09-19T10:28:28;43.16;36.34;60.45;;
1754;Laerm;58380;48.312;9.246;2023-09-19T10:31:00;47.07;37.13;70.89;;
1754;Laerm;58380;48.312;9.246;2023-09-19T10:33:36;46.34;35.89;71.21;;
1754;Laerm;58380;48.312;9.246;2023-09-19T10:36:05;49.57;36.81;76.83;;
1754;Laerm;58380;48.312;9.246;2023-09-19T10:38:33;45.73;35.46;65.03;;
1754;Laerm;58380;48.312;9.246;2023-09-19T10:41:01;48.13;33.90;72.28;;
1754;Laerm;58380;48.312;9.246;2023-09-19T10:43:33;42.91;33.27;66.12;;
1754;Laerm;58380;48.312;9.246;2023-09-19T10:46:07;46.86;35.54;70.00;;
1754;Laerm;58380;48.312;9.246;2023-09-19T10:48:40;46.93;36.17;66.75;;
1754;Laerm;58380;48.312;9.246;2023-09-19T10:51:24;45.60;33.61;67.11;;
1754;Laerm;58380;48.312;9.246;2023-09-19T10:54:11;43.22;34.73;62.11;;
1754;Laerm;58380;48.312;9.246;2023-09-19T10:56:42;48.41;36.70;73.88;;
1754;Laerm;58380;48.312;9.246;2023-09-19T10:59:15;51.99;35.04;79.00;;
1754;Laerm;58380;48.312;9.246;2023-09-19T11:04:38;47.70;34.17;69.87;;
1754;Laerm;58380;48.312;9.246;2023-09-19T11:07:12;49.40;38.16;69.50;;
1754;Laerm;58380;48.312;9.246;2023-09-19T11:09:54;58.40;39.02;85.04;;
1754;Laerm;58380;48.312;9.246;2023-09-19T11:14:51;57.48;40.81;84.98;;
1754;Laerm;58380;48.312;9.246;2023-09-19T11:25:41;53.06;38.32;78.67;;
1754;Laerm;58380;48.312;9.246;2023-09-19T11:30:50;51.71;39.73;77.09;;
1754;Laerm;58380;48.312;9.246;2023-09-19T11:33:20;47.78;40.00;69.86;;
1754;Laerm;58380;48.312;9.246;2023-09-19T11:36:17;44.20;37.71;63.50;;
1754;Laerm;58380;48.312;9.246;2023-09-19T12:22:46;56.65;36.94;83.65;;
1754;Laerm;58380;48.312;9.246;2023-09-19T12:26:02;56.84;37.02;87.49;;
1754;Laerm;58380;48.312;9.246;2023-09-19T12:28:43;51.70;37.69;77.66;;
1754;Laerm;58380;48.312;9.246;2023-09-19T12:33:59;52.82;38.05;77.75;;
1754;Laerm;58380;48.312;9.246;2023-09-19T12:36:26;46.34;37.97;68.79;;
1754;Laerm;58380;48.312;9.246;2023-09-19T12:39:04;43.59;37.96;55.89;;
1754;Laerm;58380;48.312;9.246;2023-09-19T12:49:25;43.07;37.20;61.91;;
1754;Laerm;58380;48.312;9.246;2023-09-19T12:51:54;44.59;35.30;73.54;;
1754;Laerm;58380;48.312;9.246;2023-09-19T12:55:05;50.68;37.55;73.81;;
1754;Laerm;58380;48.312;9.246;2023-09-19T13:07:53;55.15;35.74;80.04;;
1754;Laerm;58380;48.312;9.246;2023-09-19T13:14:26;43.86;35.60;66.24;;
1754;Laerm;58380;48.312;9.246;2023-09-19T13:17:09;42.03;35.37;57.31;;
1754;Laerm;58380;48.312;9.246;2023-09-19T13:20:04;56.09;36.10;83.55;;
1754;Laerm;58380;48.312;9.246;2023-09-19T13:22:44;50.71;37.56;78.85;;
1754;Laerm;58380;48.312;9.246;2023-09-19T13:28:42;43.05;35.57;55.88;;
1754;Laerm;58380;48.312;9.246;2023-09-19T13:41:31;41.96;34.98;55.82;;
1754;Laerm;58380;48.312;9.246;2023-09-19T13:43:57;42.67;33.68;67.08;;
1754;Laerm;58380;48.312;9.246;2023-09-19T13:46:23;41.94;33.98;63.49;;
1754;Laerm;58380;48.312;9.246;2023-09-19T13:48:51;51.15;35.17;81.95;;
1754;Laerm;58380;48.312;9.246;2023-09-19T13:51:21;39.85;32.30;53.11;;
1754;Laerm;58380;48.312;9.246;2023-09-19T13:53:51;41.57;33.69;52.73;;
1754;Laerm;58380;48.312;9.246;2023-09-19T13:56:16;40.85;34.91;49.49;;
1754;Laerm;58380;48.312;9.246;2023-09-19T13:58:42;45.10;38.20;56.29;;
1754;Laerm;58380;48.312;9.246;2023-09-19T14:01:08;42.12;36.96;53.26;;
1754;Laerm;58380;48.312;9.246;2023-09-19T14:03:41;53.89;35.52;83.41;;
1754;Laerm;58380;48.312;9.246;2023-09-19T14:06:12;44.70;33.20;67.26;;
1754;Laerm;58380;48.312;9.246;2023-09-19T14:08:37;47.09;39.56;63.12;;
1754;Laerm;58380;48.312;9.246;2023-09-19T14:11:08;46.43;34.36;72.23;;
1754;Laerm;58380;48.312;9.246;2023-09-19T14:13:34;42.69;34.30;61.85;;
1754;Laerm;58380;48.312;9.246;2023-09-19T14:16:04;44.27;34.15;71.56;;
1754;Laerm;58380;48.312;9.246;2023-09-19T14:18:31;43.14;35.81;61.70;;
1754;Laerm;58380;48.312;9.246;2023-09-19T14:20:56;42.25;35.42;61.21;;
1754;Laerm;58380;48.312;9.246;2023-09-19T14:23:22;44.11;35.54;57.24;;
1754;Laerm;58380;48.312;9.246;2023-09-19T14:28:23;53.95;38.71;70.30;;
1754;Laerm;58380;48.312;9.246;2023-09-19T14:30:52;47.37;37.56;69.97;;
1754;Laerm;58380;48.312;9.246;2023-09-19T14:35:56;47.93;41.91;67.39;;
1754;Laerm;58380;48.312;9.246;2023-09-19T14:38:22;46.69;41.66;53.25;;
1754;Laerm;58380;48.312;9.246;2023-09-19T14:40:47;47.89;42.26;54.38;;
1754;Laerm;58380;48.312;9.246;2023-09-19T14:43:15;48.00;40.85;67.19;;
1754;Laerm;58380;48.312;9.246;2023-09-19T14:45:41;47.22;37.80;67.98;;
1754;Laerm;58380;48.312;9.246;2023-09-19T14:48:06;45.49;36.26;68.05;;
1754;Laerm;58380;48.312;9.246;2023-09-19T14:50:32;42.67;33.17;60.28;;
1754;Laerm;58380;48.312;9.246;2023-09-19T14:52:58;42.73;34.42;61.40;;
1754;Laerm;58380;48.312;9.246;2023-09-19T14:55:27;45.35;34.34;73.37;;
1754;Laerm;58380;48.312;9.246;2023-09-19T14:57:54;42.29;34.88;57.93;;
1754;Laerm;58380;48.312;9.246;2023-09-19T15:00:21;55.49;33.86;87.42;;
1754;Laerm;58380;48.312;9.246;2023-09-19T15:02:49;42.22;34.51;56.64;;
1754;Laerm;58380;48.312;9.246;2023-09-19T15:05:16;41.04;33.29;63.73;;
1754;Laerm;58380;48.312;9.246;2023-09-19T15:07:42;40.27;34.97;59.19;;
1754;Laerm;58380;48.312;9.246;2023-09-19T15:10:10;41.83;34.68;60.24;;
1754;Laerm;58380;48.312;9.246;2023-09-19T15:12:36;42.39;35.88;64.79;;
1754;Laerm;58380;48.312;9.246;2023-09-19T15:15:05;49.13;35.74;79.70;;
1754;Laerm;58380;48.312;9.246;2023-09-19T15:17:55;41.05;33.59;54.56;;
1754;Laerm;58380;48.312;9.246;2023-09-19T15:20:20;41.79;32.61;68.90;;
1754;Laerm;58380;48.312;9.246;2023-09-19T15:22:46;42.22;34.76;58.96;;
1754;Laerm;58380;48.312;9.246;2023-09-19T15:25:11;43.48;33.76;61.33;;
1754;Laerm;58380;48.312;9.246;2023-09-19T15:27:37;43.94;34.59;60.40;;
1754;Laerm;58380;48.312;9.246;2023-09-19T15:30:03;41.93;35.05;53.43;;
1754;Laerm;58380;48.312;9.246;2023-09-19T15:32:30;45.25;33.47;58.23;;
1754;Laerm;58380;48.312;9.246;2023-09-19T15:37:37;42.61;35.70;64.49;;
1754;Laerm;58380;48.312;9.246;2023-09-19T16:11:01;40.75;32.76;49.36;;
1754;Laerm;58380;48.312;9.246;2023-09-19T16:13:51;41.39;33.10;50.18;;
1754;Laerm;58380;48.312;9.246;2023-09-19T16:43:25;41.15;34.15;51.13;;
1754;Laerm;58380;48.312;9.246;2023-09-19T16:45:58;42.91;36.07;59.64;;
1754;Laerm;58380;48.312;9.246;2023-09-19T16:48:26;43.17;34.60;54.88;;
1754;Laerm;58380;48.312;9.246;2023-09-19T16:51:02;41.78;32.70;59.38;;
1754;Laerm;58380;48.312;9.246;2023-09-19T16:53:31;42.65;32.70;53.50;;
1754;Laerm;58380;48.312;9.246;2023-09-19T16:56:06;42.46;33.57;58.62;;
1754;Laerm;58380;48.312;9.246;2023-09-19T16:58:36;42.80;33.85;59.62;;
1754;Laerm;58380;48.312;9.246;2023-09-19T17:01:02;45.07;35.48;59.50;;
1754;Laerm;58380;48.312;9.246;2023-09-19T17:03:33;43.78;33.14;56.46;;
1754;Laerm;58380;48.312;9.246;2023-09-19T17:06:08;43.96;34.85;57.19;;
1754;Laerm;58380;48.312;9.246;2023-09-19T17:08:40;43.73;33.91;55.24;;
1754;Laerm;58380;48.312;9.246;2023-09-19T17:11:10;41.06;33.04;50.30;;
1754;Laerm;58380;48.312;9.246;2023-09-19T17:13:52;42.79;33.78;55.24;;
1754;Laerm;58380;48.312;9.246;2023-09-19T17:16:22;41.54;31.83;49.08;;
1754;Laerm;58380;48.312;9.246;2023-09-19T17:18:55;42.49;37.10;57.36;;
1754;Laerm;58380;48.312;9.246;2023-09-19T17:21:31;42.87;36.46;57.66;;
1754;Laerm;58380;48.312;9.246;2023-09-19T17:24:04;41.37;35.73;51.03;;
1754;Laerm;58380;48.312;9.246;2023-09-19T17:26:39;43.05;34.89;59.87;;
1754;Laerm;58380;48.312;9.246;2023-09-19T17:29:36;45.45;35.82;56.44;;
1754;Laerm;58380;48.312;9.246;2023-09-19T17:32:08;43.07;34.79;49.96;;
1754;Laerm;58380;48.312;9.246;2023-09-19T17:34:40;42.97;33.95;53.96;;
1754;Laerm;58380;48.312;9.246;2023-09-19T17:37:52;44.30;32.45;56.24;;
1754;Laerm;58380;48.312;9.246;2023-09-19T17:40:30;44.39;32.81;53.79;;
1754;Laerm;58380;48.312;9.246;2023-09-19T17:43:32;44.93;37.34;51.90;;
1754;Laerm;58380;48.312;9.246;2023-09-19T17:49:39;42.64;34.58;63.64;;
1754;Laerm;58380;48.312;9.246;2023-09-19T17:52:09;43.38;34.58;64.56;;
1754;Laerm;58380;48.312;9.246;2023-09-19T17:55:00;44.16;34.85;54.39;;
1754;Laerm;58380;48.312;9.246;2023-09-19T17:57:39;44.88;35.77;54.72;;
1754;Laerm;58380;48.312;9.246;2023-09-19T18:00:14;45.29;38.36;54.24;;
1754;Laerm;58380;48.312;9.246;2023-09-19T18:02:43;42.68;36.55;53.29;;
1754;Laerm;58380;48.312;9.246;2023-09-19T18:05:12;39.96;34.60;54.93;;
1754;Laerm;58380;48.312;9.246;2023-09-19T18:08:05;42.84;34.79;59.18;;
1754;Laerm;58380;48.312;9.246;2023-09-19T18:10:37;43.52;35.61;59.90;;
1754;Laerm;58380;48.312;9.246;2023-09-19T18:13:06;42.98;34.48;51.68;;
1754;Laerm;58380;48.312;9.246;2023-09-19T18:15:56;41.53;30.41;52.66;;
1754;Laerm;58380;48.312;9.246;2023-09-19T18:18:28;45.52;37.36;57.09;;
1754;Laerm;58380;48.312;9.246;2023-09-19T18:20:53;43.50;34.05;65.91;;
1754;Laerm;58380;48.312;9.246;2023-09-19T18:23:19;42.95;32.74;52.89;;
1754;Laerm;58380;48.312;9.246;2023-09-19T18:25:46;42.50;32.01;53.75;;
1754;Laerm;58380;48.312;9.246;2023-09-19T18:28:13;39.69;30.95;48.93;;
1754;Laerm;58380;48.312;9.246;2023-09-19T18:30:39;43.89;31.59;52.50;;
1754;Laerm;58380;48.312;9.246;2023-09-19T18:33:04;40.57;32.01;52.79;;
1754;Laerm;58380;48.312;9.246;2023-09-19T18:35:33;37.92;29.90;50.42;;
1754;Laerm;58380;48.312;9.246;2023-09-19T18:38:00;43.38;32.53;61.99;;
1754;Laerm;58380;48.312;9.246;2023-09-19T18:40:27;40.87;30.88;57.20;;
1754;Laerm;58380;48.312;9.246;2023-09-19T18:42:55;41.46;32.67;48.39;;
1754;Laerm;58380;48.312;9.246;2023-09-19T18:45:21;38.73;29.85;52.55;;
1754;Laerm;58380;48.312;9.246;2023-09-19T18:47:49;40.04;31.84;47.03;;
1754;Laerm;58380;48.312;9.246;2023-09-19T18:50:15;43.09;32.39;52.81;;
1754;Laerm;58380;48.312;9.246;2023-09-19T18:52:41;39.46;30.46;51.80;;
1754;Laerm;58380;48.312;9.246;2023-09-19T18:55:11;40.32;31.30;53.76;;
1754;Laerm;58380;48.312;9.246;2023-09-19T18:57:41;41.36;30.75;57.09;;
1754;Laerm;58380;48.312;9.246;2023-09-19T19:00:08;41.11;30.52;49.21;;
1754;Laerm;58380;48.312;9.246;2023-09-19T19:02:47;39.08;30.71;45.89;;
1754;Laerm;58380;48.312;9.246;2023-09-19T19:05:13;39.02;32.56;44.95;;
1754;Laerm;58380;48.312;9.246;2023-09-19T19:07:41;39.90;31.12;49.74;;
1754;Laerm;58380;48.312;9.246;2023-09-19T19:10:09;38.51;30.98;46.68;;
1754;Laerm;58380;48.312;9.246;2023-09-19T19:12:38;37.80;30.26;45.29;;
1754;Laerm;58380;48.312;9.246;2023-09-19T19:15:06;38.19;31.65;45.06;;
1754;Laerm;58380;48.312;9.246;2023-09-19T19:17:36;36.60;31.37;51.06;;
1754;Laerm;58380;48.312;9.246;2023-09-19T19:20:07;40.13;32.92;48.66;;
1754;Laerm;58380;48.312;9.246;2023-09-19T19:22:34;37.78;31.69;43.68;;
1754;Laerm;58380;48.312;9.246;2023-09-19T19:25:03;39.84;34.50;47.61;;
1754;Laerm;58380;48.312;9.246;2023-09-19T19:27:30;40.52;31.95;51.86;;
1754;Laerm;58380;48.312;9.246;2023-09-19T19:29:59;37.46;29.56;46.26;;
1754;Laerm;58380;48.312;9.246;2023-09-19T19:32:24;38.83;31.17;50.62;;
1754;Laerm;58380;48.312;9.246;2023-09-19T19:34:52;36.86;30.38;44.47;;
1754;Laerm;58380;48.312;9.246;2023-09-19T19:37:20;36.35;29.77;43.56;;
1754;Laerm;58380;48.312;9.246;2023-09-19T19:39:48;40.69;33.14;49.62;;
1754;Laerm;58380;48.312;9.246;2023-09-19T19:42:14;37.27;31.01;49.40;;
1754;Laerm;58380;48.312;9.246;2023-09-19T19:44:39;35.95;29.69;42.47;;
1754;Laerm;58380;48.312;9.246;2023-09-19T19:47:05;35.84;30.13;42.43;;
1754;Laerm;58380;48.312;9.246;2023-09-19T19:49:31;36.84;31.24;43.80;;
1754;Laerm;58380;48.312;9.246;2023-09-19T19:51:59;38.98;30.95;46.24;;
1754;Laerm;58380;48.312;9.246;2023-09-19T19:54:25;34.39;30.71;48.24;;
1754;Laerm;58380;48.312;9.246;2023-09-19T19:56:50;44.50;31.20;54.06;;
1754;Laerm;58380;48.312;9.246;2023-09-19T19:59:16;37.54;30.79;49.46;;
1754;Laerm;58380;48.312;9.246;2023-09-19T20:01:43;36.57;29.10;44.36;;
1754;Laerm;58380;48.312;9.246;2023-09-19T20:04:09;38.95;29.53;51.44;;
1754;Laerm;58380;48.312;9.246;2023-09-19T20:06:40;37.99;30.94;47.25;;
1754;Laerm;58380;48.312;9.246;2023-09-19T20:09:07;37.60;31.28;45.94;;
1754;Laerm;58380;48.312;9.246;2023-09-19T20:11:38;39.38;31.45;44.88;;
1754;Laerm;58380;48.312;9.246;2023-09-19T20:14:03;42.78;32.15;52.66;;
1754;Laerm;58380;48.312;9.246;2023-09-19T20:16:33;36.82;30.51;47.41;;
1754;Laerm;58380;48.312;9.246;2023-09-19T20:19:02;36.63;30.39;43.80;;
1754;Laerm;58380;48.312;9.246;2023-09-19T20:21:30;41.38;33.37;48.88;;
1754;Laerm;58380;48.312;9.246;2023-09-19T20:23:56;49.82;30.77;67.61;;
1754;Laerm;58380;48.312;9.246;2023-09-19T20:26:29;40.23;30.66;61.83;;
1754;Laerm;58380;48.312;9.246;2023-09-19T20:28:57;37.07;30.57;52.40;;
1754;Laerm;58380;48.312;9.246;2023-09-19T20:31:26;36.48;31.01;46.87;;
